sensor_id;sensor_type;location;lat;lon;timestamp;P1;durP1;ratioP1;P2;durP2;ratioP2
72205;SDS011;60111;48.286;7.812;2022-07-22T00:01:53;8.93;;;5.78;;
72205;SDS011;60111;48.286;7.812;2022-07-22T00:04:26;6.83;;;5.87;;
72205;SDS011;60111;48.286;7.812;2022-07-22T00:06:58;8.43;;;6.03;;
72205;SDS011;60111;48.286;7.812;2022-07-22T00:09:31;7.42;;;5.70;;
72205;SDS011;60111;48.286;7.812;2022-07-22T00:12:04;6.78;;;6.15;;
72205;SDS011;60111;48.286;7.812;2022-07-22T00:14:37;7.87;;;6.08;;
72205;SDS011;60111;48.286;7.812;2022-07-22T00:17:11;8.13;;;5.92;;
72205;SDS011;60111;48.286;7.812;2022-07-22T00:19:43;6.70;;;5.50;;
72205;SDS011;60111;48.286;7.812;2022-07-22T00:22:16;6.83;;;6.00;;
72205;SDS011;60111;48.286;7.812;2022-07-22T00:24:49;8.93;;;5.70;;
72205;SDS011;60111;48.286;7.812;2022-07-22T00:27:22;8.95;;;5.47;;
72205;SDS011;60111;48.286;7.812;2022-07-22T00:29:54;6.90;;;5.50;;
72205;SDS011;60111;48.286;7.812;2022-07-22T00:32:27;7.00;;;6.03;;
72205;SDS011;60111;48.286;7.812;2022-07-22T00:35:00;6.35;;;5.53;;
72205;SDS011;60111;48.286;7.812;2022-07-22T00:37:33;9.33;;;6.17;;
72205;SDS011;60111;48.286;7.812;2022-07-22T00:40:05;6.47;;;5.75;;
72205;SDS011;60111;48.286;7.812;2022-07-22T00:42:39;7.80;;;6.53;;
72205;SDS011;60111;48.286;7.812;2022-07-22T00:45:12;9.43;;;6.25;;
72205;SDS011;60111;48.286;7.812;2022-07-22T00:47:45;10.63;;;6.65;;
72205;SDS011;60111;48.286;7.812;2022-07-22T00:50:18;8.98;;;6.75;;
72205;SDS011;60111;48.286;7.812;2022-07-22T00:52:51;7.97;;;6.77;;
72205;SDS011;60111;48.286;7.812;2022-07-22T00:55:25;8.48;;;6.72;;
72205;SDS011;60111;48.286;7.812;2022-07-22T00:57:57;9.07;;;6.93;;
72205;SDS011;60111;48.286;7.812;2022-07-22T01:00:30;9.38;;;6.75;;
72205;SDS011;60111;48.286;7.812;2022-07-22T01:03:03;9.80;;;7.00;;
72205;SDS011;60111;48.286;7.812;2022-07-22T01:05:36;9.28;;;6.53;;
72205;SDS011;60111;48.286;7.812;2022-07-22T01:08:08;10.80;;;6.85;;
72205;SDS011;60111;48.286;7.812;2022-07-22T01:10:41;9.05;;;6.30;;
72205;SDS011;60111;48.286;7.812;2022-07-22T01:13:14;10.13;;;6.92;;
72205;SDS011;60111;48.286;7.812;2022-07-22T01:15:46;8.05;;;6.45;;
72205;SDS011;60111;48.286;7.812;2022-07-22T01:18:20;9.07;;;6.53;;
72205;SDS011;60111;48.286;7.812;2022-07-22T01:20:53;9.03;;;6.97;;
72205;SDS011;60111;48.286;7.812;2022-07-22T01:23:26;7.95;;;6.90;;
72205;SDS011;60111;48.286;7.812;2022-07-22T01:25:59;8.60;;;6.90;;
72205;SDS011;60111;48.286;7.812;2022-07-22T01:28:32;8.90;;;7.12;;
72205;SDS011;60111;48.286;7.812;2022-07-22T01:31:05;8.80;;;7.17;;
72205;SDS011;60111;48.286;7.812;2022-07-22T01:33:38;11.20;;;7.17;;
72205;SDS011;60111;48.286;7.812;2022-07-22T01:36:10;8.40;;;6.70;;
72205;SDS011;60111;48.286;7.812;2022-07-22T01:38:43;8.35;;;6.87;;
72205;SDS011;60111;48.286;7.812;2022-07-22T01:41:16;8.30;;;6.50;;
72205;SDS011;60111;48.286;7.812;2022-07-22T01:43:49;7.37;;;6.37;;
72205;SDS011;60111;48.286;7.812;2022-07-22T01:46:21;8.58;;;7.25;;
72205;SDS011;60111;48.286;7.812;2022-07-22T01:48:54;9.30;;;7.20;;
72205;SDS011;60111;48.286;7.812;2022-07-22T01:51:27;8.53;;;7.17;;
72205;SDS011;60111;48.286;7.812;2022-07-22T01:53:59;10.50;;;7.08;;
72205;SDS011;60111;48.286;7.812;2022-07-22T01:56:32;8.33;;;7.17;;
72205;SDS011;60111;48.286;7.812;2022-07-22T01:59:05;7.85;;;6.95;;
72205;SDS011;60111;48.286;7.812;2022-07-22T02:01:38;8.83;;;6.57;;
72205;SDS011;60111;48.286;7.812;2022-07-22T02:04:11;10.35;;;7.25;;
72205;SDS011;60111;48.286;7.812;2022-07-22T02:06:43;9.70;;;6.58;;
72205;SDS011;60111;48.286;7.812;2022-07-22T02:09:16;10.67;;;7.13;;
72205;SDS011;60111;48.286;7.812;2022-07-22T02:11:48;12.00;;;6.95;;
72205;SDS011;60111;48.286;7.812;2022-07-22T02:14:21;10.70;;;7.03;;
72205;SDS011;60111;48.286;7.812;2022-07-22T02:16:54;7.78;;;6.28;;
72205;SDS011;60111;48.286;7.812;2022-07-22T02:19:27;9.93;;;7.00;;
72205;SDS011;60111;48.286;7.812;2022-07-22T02:21:59;7.87;;;6.80;;
72205;SDS011;60111;48.286;7.812;2022-07-22T02:24:32;10.05;;;7.20;;
72205;SDS011;60111;48.286;7.812;2022-07-22T02:27:05;8.13;;;6.80;;
72205;SDS011;60111;48.286;7.812;2022-07-22T02:29:38;8.73;;;6.75;;
72205;SDS011;60111;48.286;7.812;2022-07-22T02:32:10;11.75;;;7.28;;
72205;SDS011;60111;48.286;7.812;2022-07-22T02:34:43;11.25;;;7.00;;
72205;SDS011;60111;48.286;7.812;2022-07-22T02:37:16;9.90;;;6.93;;
72205;SDS011;60111;48.286;7.812;2022-07-22T02:39:48;10.32;;;7.00;;
72205;SDS011;60111;48.286;7.812;2022-07-22T02:42:21;8.23;;;7.40;;
72205;SDS011;60111;48.286;7.812;2022-07-22T02:44:53;8.18;;;7.25;;
72205;SDS011;60111;48.286;7.812;2022-07-22T02:47:26;8.68;;;7.75;;
72205;SDS011;60111;48.286;7.812;2022-07-22T02:49:59;11.03;;;7.22;;
72205;SDS011;60111;48.286;7.812;2022-07-22T02:52:32;9.43;;;7.97;;
72205;SDS011;60111;48.286;7.812;2022-07-22T02:55:05;12.65;;;8.28;;
72205;SDS011;60111;48.286;7.812;2022-07-22T02:57:38;10.53;;;8.23;;
72205;SDS011;60111;48.286;7.812;2022-07-22T03:00:11;10.80;;;7.70;;
72205;SDS011;60111;48.286;7.812;2022-07-22T03:02:45;13.75;;;8.65;;
72205;SDS011;60111;48.286;7.812;2022-07-22T03:05:17;10.23;;;8.67;;
72205;SDS011;60111;48.286;7.812;2022-07-22T03:07:50;10.97;;;7.90;;
72205;SDS011;60111;48.286;7.812;2022-07-22T03:10:22;10.90;;;9.03;;
72205;SDS011;60111;48.286;7.812;2022-07-22T03:12:55;13.83;;;9.08;;
72205;SDS011;60111;48.286;7.812;2022-07-22T03:15:28;11.73;;;8.83;;
72205;SDS011;60111;48.286;7.812;2022-07-22T03:18:00;11.33;;;9.10;;
72205;SDS011;60111;48.286;7.812;2022-07-22T03:20:33;10.32;;;8.90;;
72205;SDS011;60111;48.286;7.812;2022-07-22T03:23:06;9.25;;;8.30;;
72205;SDS011;60111;48.286;7.812;2022-07-22T03:25:38;14.30;;;9.60;;
72205;SDS011;60111;48.286;7.812;2022-07-22T03:28:11;10.38;;;8.55;;
72205;SDS011;60111;48.286;7.812;2022-07-22T03:30:44;9.53;;;7.50;;
72205;SDS011;60111;48.286;7.812;2022-07-22T03:33:16;13.43;;;8.50;;
72205;SDS011;60111;48.286;7.812;2022-07-22T03:35:49;15.03;;;8.40;;
72205;SDS011;60111;48.286;7.812;2022-07-22T03:38:22;13.03;;;8.65;;
72205;SDS011;60111;48.286;7.812;2022-07-22T03:40:54;12.60;;;9.28;;
72205;SDS011;60111;48.286;7.812;2022-07-22T03:43:27;13.93;;;9.37;;
72205;SDS011;60111;48.286;7.812;2022-07-22T03:45:59;10.35;;;9.28;;
72205;SDS011;60111;48.286;7.812;2022-07-22T03:48:32;9.93;;;8.93;;
72205;SDS011;60111;48.286;7.812;2022-07-22T03:51:05;10.58;;;9.48;;
72205;SDS011;60111;48.286;7.812;2022-07-22T03:53:38;10.70;;;8.70;;
72205;SDS011;60111;48.286;7.812;2022-07-22T03:56:10;11.93;;;10.25;;
72205;SDS011;60111;48.286;7.812;2022-07-22T03:58:43;12.57;;;10.50;;
72205;SDS011;60111;48.286;7.812;2022-07-22T04:01:16;13.25;;;10.45;;
72205;SDS011;60111;48.286;7.812;2022-07-22T04:03:48;12.10;;;9.50;;
72205;SDS011;60111;48.286;7.812;2022-07-22T04:06:21;11.43;;;10.28;;
72205;SDS011;60111;48.286;7.812;2022-07-22T04:08:53;14.93;;;11.08;;
72205;SDS011;60111;48.286;7.812;2022-07-22T04:11:26;13.90;;;10.13;;
72205;SDS011;60111;48.286;7.812;2022-07-22T04:13:59;13.83;;;10.43;;
72205;SDS011;60111;48.286;7.812;2022-07-22T04:16:32;16.07;;;10.63;;
72205;SDS011;60111;48.286;7.812;2022-07-22T04:19:05;15.90;;;11.50;;
72205;SDS011;60111;48.286;7.812;2022-07-22T04:21:38;18.57;;;11.60;;
72205;SDS011;60111;48.286;7.812;2022-07-22T04:24:11;15.13;;;12.33;;
72205;SDS011;60111;48.286;7.812;2022-07-22T04:26:44;16.93;;;12.75;;
72205;SDS011;60111;48.286;7.812;2022-07-22T04:29:16;19.52;;;13.35;;
72205;SDS011;60111;48.286;7.812;2022-07-22T04:31:49;16.57;;;12.30;;
72205;SDS011;60111;48.286;7.812;2022-07-22T04:34:22;17.23;;;12.13;;
72205;SDS011;60111;48.286;7.812;2022-07-22T04:36:54;16.20;;;12.78;;
72205;SDS011;60111;48.286;7.812;2022-07-22T04:39:27;14.83;;;11.60;;
72205;SDS011;60111;48.286;7.812;2022-07-22T04:42:00;15.20;;;10.70;;
72205;SDS011;60111;48.286;7.812;2022-07-22T04:44:33;14.83;;;10.72;;
72205;SDS011;60111;48.286;7.812;2022-07-22T04:47:05;14.45;;;10.55;;
72205;SDS011;60111;48.286;7.812;2022-07-22T04:49:38;16.17;;;10.60;;
72205;SDS011;60111;48.286;7.812;2022-07-22T04:52:11;13.13;;;10.50;;
72205;SDS011;60111;48.286;7.812;2022-07-22T04:54:44;13.35;;;10.32;;
72205;SDS011;60111;48.286;7.812;2022-07-22T04:57:16;16.57;;;12.47;;
72205;SDS011;60111;48.286;7.812;2022-07-22T04:59:49;14.35;;;11.60;;
72205;SDS011;60111;48.286;7.812;2022-07-22T05:02:21;17.35;;;11.68;;
72205;SDS011;60111;48.286;7.812;2022-07-22T05:04:54;17.15;;;11.85;;
72205;SDS011;60111;48.286;7.812;2022-07-22T05:07:27;16.73;;;12.43;;
72205;SDS011;60111;48.286;7.812;2022-07-22T05:09:59;18.07;;;13.18;;
72205;SDS011;60111;48.286;7.812;2022-07-22T05:12:32;16.93;;;14.15;;
72205;SDS011;60111;48.286;7.812;2022-07-22T05:15:05;17.75;;;14.43;;
72205;SDS011;60111;48.286;7.812;2022-07-22T05:17:38;23.53;;;15.27;;
72205;SDS011;60111;48.286;7.812;2022-07-22T05:20:11;21.00;;;15.17;;
72205;SDS011;60111;48.286;7.812;2022-07-22T05:22:44;20.83;;;15.93;;
72205;SDS011;60111;48.286;7.812;2022-07-22T05:25:17;20.85;;;15.70;;
72205;SDS011;60111;48.286;7.812;2022-07-22T05:27:55;18.40;;;14.65;;
72205;SDS011;60111;48.286;7.812;2022-07-22T05:30:24;18.37;;;14.15;;
72205;SDS011;60111;48.286;7.812;2022-07-22T05:32:57;20.20;;;16.45;;
72205;SDS011;60111;48.286;7.812;2022-07-22T05:35:30;19.00;;;14.07;;
72205;SDS011;60111;48.286;7.812;2022-07-22T05:38:03;25.00;;;15.60;;
72205;SDS011;60111;48.286;7.812;2022-07-22T05:40:36;23.57;;;15.53;;
72205;SDS011;60111;48.286;7.812;2022-07-22T05:43:09;24.25;;;14.55;;
72205;SDS011;60111;48.286;7.812;2022-07-22T05:45:42;21.67;;;14.03;;
72205;SDS011;60111;48.286;7.812;2022-07-22T05:48:14;21.90;;;15.53;;
72205;SDS011;60111;48.286;7.812;2022-07-22T05:50:47;22.95;;;15.80;;
72205;SDS011;60111;48.286;7.812;2022-07-22T05:53:20;24.73;;;14.83;;
72205;SDS011;60111;48.286;7.812;2022-07-22T05:55:53;21.77;;;16.73;;
72205;SDS011;60111;48.286;7.812;2022-07-22T05:58:25;17.27;;;13.85;;
72205;SDS011;60111;48.286;7.812;2022-07-22T06:00:58;20.23;;;13.93;;
72205;SDS011;60111;48.286;7.812;2022-07-22T06:03:31;21.15;;;13.28;;
72205;SDS011;60111;48.286;7.812;2022-07-22T06:06:03;18.10;;;13.18;;
72205;SDS011;60111;48.286;7.812;2022-07-22T06:08:38;19.42;;;13.40;;
72205;SDS011;60111;48.286;7.812;2022-07-22T06:11:13;21.17;;;14.65;;
72205;SDS011;60111;48.286;7.812;2022-07-22T06:13:45;20.75;;;14.47;;
72205;SDS011;60111;48.286;7.812;2022-07-22T06:16:17;18.90;;;13.07;;
72205;SDS011;60111;48.286;7.812;2022-07-22T06:18:50;17.32;;;14.28;;
72205;SDS011;60111;48.286;7.812;2022-07-22T06:21:23;20.88;;;15.25;;
72205;SDS011;60111;48.286;7.812;2022-07-22T06:23:55;16.45;;;13.45;;
72205;SDS011;60111;48.286;7.812;2022-07-22T06:26:28;14.93;;;13.25;;
72205;SDS011;60111;48.286;7.812;2022-07-22T06:29:01;16.00;;;13.48;;
72205;SDS011;60111;48.286;7.812;2022-07-22T06:31:34;17.87;;;13.35;;
72205;SDS011;60111;48.286;7.812;2022-07-22T06:34:06;20.52;;;12.37;;
72205;SDS011;60111;48.286;7.812;2022-07-22T06:36:39;20.43;;;13.78;;
72205;SDS011;60111;48.286;7.812;2022-07-22T06:39:12;18.90;;;13.53;;
72205;SDS011;60111;48.286;7.812;2022-07-22T06:41:44;17.73;;;14.50;;
72205;SDS011;60111;48.286;7.812;2022-07-22T06:44:17;15.53;;;12.00;;
72205;SDS011;60111;48.286;7.812;2022-07-22T06:46:50;15.33;;;12.53;;
72205;SDS011;60111;48.286;7.812;2022-07-22T06:49:22;17.02;;;13.03;;
72205;SDS011;60111;48.286;7.812;2022-07-22T06:51:55;18.52;;;13.18;;
72205;SDS011;60111;48.286;7.812;2022-07-22T06:54:28;17.42;;;12.23;;
72205;SDS011;60111;48.286;7.812;2022-07-22T06:57:01;15.43;;;11.95;;
72205;SDS011;60111;48.286;7.812;2022-07-22T06:59:33;15.67;;;12.27;;
72205;SDS011;60111;48.286;7.812;2022-07-22T07:02:06;19.92;;;12.50;;
72205;SDS011;60111;48.286;7.812;2022-07-22T07:04:39;16.47;;;11.83;;
72205;SDS011;60111;48.286;7.812;2022-07-22T07:07:12;18.80;;;14.00;;
72205;SDS011;60111;48.286;7.812;2022-07-22T07:09:44;14.50;;;11.30;;
72205;SDS011;60111;48.286;7.812;2022-07-22T07:12:17;16.48;;;11.48;;
72205;SDS011;60111;48.286;7.812;2022-07-22T07:14:50;19.60;;;11.70;;
72205;SDS011;60111;48.286;7.812;2022-07-22T07:17:22;15.23;;;11.40;;
72205;SDS011;60111;48.286;7.812;2022-07-22T07:19:55;13.45;;;10.90;;
72205;SDS011;60111;48.286;7.812;2022-07-22T07:22:28;17.48;;;11.53;;
72205;SDS011;60111;48.286;7.812;2022-07-22T07:25:04;15.83;;;10.78;;
72205;SDS011;60111;48.286;7.812;2022-07-22T07:27:37;12.47;;;10.75;;
72205;SDS011;60111;48.286;7.812;2022-07-22T07:30:10;12.37;;;10.30;;
72205;SDS011;60111;48.286;7.812;2022-07-22T07:32:43;12.73;;;11.43;;
72205;SDS011;60111;48.286;7.812;2022-07-22T07:35:16;14.93;;;10.55;;
72205;SDS011;60111;48.286;7.812;2022-07-22T07:37:48;18.87;;;11.40;;
72205;SDS011;60111;48.286;7.812;2022-07-22T07:40:21;12.37;;;9.78;;
72205;SDS011;60111;48.286;7.812;2022-07-22T07:42:54;16.15;;;10.78;;
72205;SDS011;60111;48.286;7.812;2022-07-22T07:45:26;14.50;;;10.95;;
72205;SDS011;60111;48.286;7.812;2022-07-22T07:47:59;15.55;;;10.45;;
72205;SDS011;60111;48.286;7.812;2022-07-22T07:50:32;19.93;;;10.40;;
72205;SDS011;60111;48.286;7.812;2022-07-22T07:53:05;15.63;;;10.20;;
72205;SDS011;60111;48.286;7.812;2022-07-22T07:55:38;15.58;;;9.68;;
72205;SDS011;60111;48.286;7.812;2022-07-22T07:58:11;13.75;;;9.20;;
72205;SDS011;60111;48.286;7.812;2022-07-22T08:00:44;14.53;;;10.27;;
72205;SDS011;60111;48.286;7.812;2022-07-22T08:03:17;16.27;;;10.07;;
72205;SDS011;60111;48.286;7.812;2022-07-22T08:05:49;13.93;;;9.58;;
72205;SDS011;60111;48.286;7.812;2022-07-22T08:08:22;10.53;;;9.33;;
72205;SDS011;60111;48.286;7.812;2022-07-22T08:10:55;14.23;;;9.98;;
72205;SDS011;60111;48.286;7.812;2022-07-22T08:13:27;12.63;;;9.15;;
72205;SDS011;60111;48.286;7.812;2022-07-22T08:16:00;12.23;;;9.95;;
72205;SDS011;60111;48.286;7.812;2022-07-22T08:18:33;13.30;;;8.75;;
72205;SDS011;60111;48.286;7.812;2022-07-22T08:21:06;11.90;;;9.53;;
72205;SDS011;60111;48.286;7.812;2022-07-22T08:23:39;12.40;;;8.93;;
72205;SDS011;60111;48.286;7.812;2022-07-22T08:26:11;14.38;;;9.40;;
72205;SDS011;60111;48.286;7.812;2022-07-22T08:28:44;9.93;;;8.25;;
72205;SDS011;60111;48.286;7.812;2022-07-22T08:31:17;10.82;;;8.58;;
72205;SDS011;60111;48.286;7.812;2022-07-22T08:33:50;12.40;;;9.50;;
72205;SDS011;60111;48.286;7.812;2022-07-22T08:36:22;10.70;;;9.30;;
72205;SDS011;60111;48.286;7.812;2022-07-22T08:38:55;11.55;;;9.23;;
72205;SDS011;60111;48.286;7.812;2022-07-22T08:41:28;13.10;;;9.28;;
72205;SDS011;60111;48.286;7.812;2022-07-22T08:44:04;12.37;;;9.35;;
72205;SDS011;60111;48.286;7.812;2022-07-22T08:46:39;11.13;;;8.30;;
72205;SDS011;60111;48.286;7.812;2022-07-22T08:49:14;13.68;;;8.70;;
72205;SDS011;60111;48.286;7.812;2022-07-22T08:51:47;13.58;;;8.30;;
72205;SDS011;60111;48.286;7.812;2022-07-22T08:54:20;11.33;;;8.83;;
72205;SDS011;60111;48.286;7.812;2022-07-22T08:56:52;11.43;;;8.45;;
72205;SDS011;60111;48.286;7.812;2022-07-22T08:59:25;9.35;;;8.03;;
72205;SDS011;60111;48.286;7.812;2022-07-22T09:02:08;12.07;;;8.40;;
72205;SDS011;60111;48.286;7.812;2022-07-22T09:04:52;13.80;;;8.10;;
72205;SDS011;60111;48.286;7.812;2022-07-22T09:07:33;10.75;;;8.03;;
72205;SDS011;60111;48.286;7.812;2022-07-22T09:10:09;10.73;;;8.10;;
72205;SDS011;60111;48.286;7.812;2022-07-22T09:12:50;12.85;;;8.90;;
72205;SDS011;60111;48.286;7.812;2022-07-22T09:15:25;11.65;;;7.08;;
72205;SDS011;60111;48.286;7.812;2022-07-22T09:17:59;10.50;;;7.70;;
72205;SDS011;60111;48.286;7.812;2022-07-22T09:20:33;13.60;;;8.40;;
72205;SDS011;60111;48.286;7.812;2022-07-22T09:23:16;12.40;;;8.85;;
72205;SDS011;60111;48.286;7.812;2022-07-22T09:25:45;12.63;;;9.03;;
72205;SDS011;60111;48.286;7.812;2022-07-22T09:28:21;13.00;;;7.58;;
72205;SDS011;60111;48.286;7.812;2022-07-22T09:30:55;13.85;;;8.65;;
72205;SDS011;60111;48.286;7.812;2022-07-22T09:33:28;12.98;;;8.85;;
72205;SDS011;60111;48.286;7.812;2022-07-22T09:36:02;11.80;;;8.67;;
72205;SDS011;60111;48.286;7.812;2022-07-22T09:38:36;9.28;;;8.20;;
72205;SDS011;60111;48.286;7.812;2022-07-22T09:41:08;11.08;;;8.10;;
72205;SDS011;60111;48.286;7.812;2022-07-22T09:43:41;9.65;;;8.48;;
72205;SDS011;60111;48.286;7.812;2022-07-22T09:46:13;11.35;;;7.50;;
72205;SDS011;60111;48.286;7.812;2022-07-22T09:48:46;10.45;;;8.10;;
72205;SDS011;60111;48.286;7.812;2022-07-22T09:51:19;13.90;;;7.83;;
72205;SDS011;60111;48.286;7.812;2022-07-22T09:53:51;14.30;;;8.28;;
72205;SDS011;60111;48.286;7.812;2022-07-22T09:56:26;12.57;;;8.03;;
72205;SDS011;60111;48.286;7.812;2022-07-22T09:59:01;17.50;;;8.63;;
72205;SDS011;60111;48.286;7.812;2022-07-22T10:01:34;9.15;;;8.10;;
72205;SDS011;60111;48.286;7.812;2022-07-22T10:04:08;12.70;;;8.48;;
72205;SDS011;60111;48.286;7.812;2022-07-22T10:06:42;14.20;;;8.58;;
72205;SDS011;60111;48.286;7.812;2022-07-22T10:09:16;14.30;;;7.80;;
72205;SDS011;60111;48.286;7.812;2022-07-22T10:11:51;9.63;;;6.95;;
72205;SDS011;60111;48.286;7.812;2022-07-22T10:14:25;11.97;;;8.28;;
72205;SDS011;60111;48.286;7.812;2022-07-22T10:16:59;12.28;;;8.55;;
72205;SDS011;60111;48.286;7.812;2022-07-22T10:19:33;10.38;;;7.72;;
72205;SDS011;60111;48.286;7.812;2022-07-22T10:22:55;11.47;;;8.13;;
72205;SDS011;60111;48.286;7.812;2022-07-22T10:24:59;10.65;;;7.47;;
72205;SDS011;60111;48.286;7.812;2022-07-22T10:30:27;10.35;;;7.53;;
72205;SDS011;60111;48.286;7.812;2022-07-22T10:33:05;22.13;;;7.95;;
72205;SDS011;60111;48.286;7.812;2022-07-22T10:38:31;10.13;;;8.00;;
72205;SDS011;60111;48.286;7.812;2022-07-22T10:41:05;10.58;;;8.45;;
72205;SDS011;60111;48.286;7.812;2022-07-22T10:46:18;8.85;;;7.67;;
72205;SDS011;60111;48.286;7.812;2022-07-22T10:48:54;9.13;;;7.70;;
72205;SDS011;60111;48.286;7.812;2022-07-22T10:51:28;10.23;;;7.37;;
72205;SDS011;60111;48.286;7.812;2022-07-22T10:54:01;11.45;;;7.58;;
72205;SDS011;60111;48.286;7.812;2022-07-22T10:56:34;10.47;;;8.07;;
72205;SDS011;60111;48.286;7.812;2022-07-22T10:59:13;13.20;;;8.20;;
72205;SDS011;60111;48.286;7.812;2022-07-22T11:01:48;9.75;;;7.83;;
72205;SDS011;60111;48.286;7.812;2022-07-22T11:04:23;11.13;;;7.97;;
72205;SDS011;60111;48.286;7.812;2022-07-22T11:06:58;13.75;;;8.40;;
72205;SDS011;60111;48.286;7.812;2022-07-22T11:09:32;9.53;;;7.92;;
72205;SDS011;60111;48.286;7.812;2022-07-22T11:12:11;11.65;;;7.62;;
72205;SDS011;60111;48.286;7.812;2022-07-22T11:14:46;11.27;;;7.03;;
72205;SDS011;60111;48.286;7.812;2022-07-22T11:17:19;9.00;;;7.40;;
72205;SDS011;60111;48.286;7.812;2022-07-22T11:19:53;11.75;;;7.42;;
72205;SDS011;60111;48.286;7.812;2022-07-22T11:22:26;8.70;;;6.97;;
72205;SDS011;60111;48.286;7.812;2022-07-22T11:25:00;15.28;;;7.15;;
72205;SDS011;60111;48.286;7.812;2022-07-22T11:27:34;8.60;;;7.20;;
72205;SDS011;60111;48.286;7.812;2022-07-22T11:30:07;8.78;;;7.55;;
72205;SDS011;60111;48.286;7.812;2022-07-22T11:32:43;9.50;;;6.90;;
72205;SDS011;60111;48.286;7.812;2022-07-22T11:35:17;15.73;;;7.33;;
72205;SDS011;60111;48.286;7.812;2022-07-22T11:37:56;11.40;;;7.47;;
72205;SDS011;60111;48.286;7.812;2022-07-22T11:40:32;10.70;;;7.65;;
72205;SDS011;60111;48.286;7.812;2022-07-22T11:43:05;10.98;;;7.45;;
72205;SDS011;60111;48.286;7.812;2022-07-22T11:45:54;11.63;;;7.33;;
72205;SDS011;60111;48.286;7.812;2022-07-22T11:48:26;9.03;;;7.17;;
72205;SDS011;60111;48.286;7.812;2022-07-22T11:51:00;12.20;;;7.70;;
72205;SDS011;60111;48.286;7.812;2022-07-22T11:53:33;8.28;;;7.37;;
72205;SDS011;60111;48.286;7.812;2022-07-22T11:56:07;9.23;;;6.80;;
72205;SDS011;60111;48.286;7.812;2022-07-22T11:58:41;9.53;;;7.87;;
72205;SDS011;60111;48.286;7.812;2022-07-22T12:01:16;11.40;;;7.12;;
72205;SDS011;60111;48.286;7.812;2022-07-22T12:03:53;8.80;;;7.57;;
72205;SDS011;60111;48.286;7.812;2022-07-22T12:06:27;11.77;;;7.70;;
72205;SDS011;60111;48.286;7.812;2022-07-22T12:09:05;11.38;;;7.62;;
72205;SDS011;60111;48.286;7.812;2022-07-22T12:11:41;10.65;;;6.97;;
72205;SDS011;60111;48.286;7.812;2022-07-22T12:17:07;12.18;;;7.20;;
72205;SDS011;60111;48.286;7.812;2022-07-22T12:19:41;8.53;;;6.83;;
72205;SDS011;60111;48.286;7.812;2022-07-22T12:22:22;7.80;;;6.90;;
72205;SDS011;60111;48.286;7.812;2022-07-22T12:24:59;11.38;;;6.47;;
72205;SDS011;60111;48.286;7.812;2022-07-22T12:27:33;10.58;;;6.87;;
72205;SDS011;60111;48.286;7.812;2022-07-22T12:30:12;10.87;;;7.03;;
72205;SDS011;60111;48.286;7.812;2022-07-22T12:32:48;8.53;;;6.50;;
72205;SDS011;60111;48.286;7.812;2022-07-22T12:35:21;9.38;;;6.83;;
72205;SDS011;60111;48.286;7.812;2022-07-22T12:37:53;10.50;;;7.33;;
72205;SDS011;60111;48.286;7.812;2022-07-22T12:40:26;7.95;;;6.12;;
72205;SDS011;60111;48.286;7.812;2022-07-22T12:42:59;10.43;;;6.35;;
72205;SDS011;60111;48.286;7.812;2022-07-22T12:45:35;7.60;;;6.27;;
72205;SDS011;60111;48.286;7.812;2022-07-22T12:48:09;9.93;;;6.20;;
72205;SDS011;60111;48.286;7.812;2022-07-22T12:50:43;9.70;;;6.37;;
72205;SDS011;60111;48.286;7.812;2022-07-22T12:53:18;9.05;;;7.28;;
72205;SDS011;60111;48.286;7.812;2022-07-22T12:55:51;8.23;;;6.33;;
72205;SDS011;60111;48.286;7.812;2022-07-22T12:58:30;7.65;;;6.20;;
72205;SDS011;60111;48.286;7.812;2022-07-22T13:01:03;8.70;;;6.62;;
72205;SDS011;60111;48.286;7.812;2022-07-22T13:03:36;8.53;;;6.60;;
72205;SDS011;60111;48.286;7.812;2022-07-22T13:06:08;10.00;;;6.60;;
72205;SDS011;60111;48.286;7.812;2022-07-22T13:08:41;9.45;;;6.37;;
72205;SDS011;60111;48.286;7.812;2022-07-22T13:11:14;8.40;;;7.13;;
72205;SDS011;60111;48.286;7.812;2022-07-22T13:13:47;8.05;;;6.00;;
72205;SDS011;60111;48.286;7.812;2022-07-22T13:16:19;11.40;;;6.87;;
72205;SDS011;60111;48.286;7.812;2022-07-22T13:18:52;8.07;;;6.30;;
72205;SDS011;60111;48.286;7.812;2022-07-22T13:21:25;9.70;;;5.90;;
72205;SDS011;60111;48.286;7.812;2022-07-22T13:23:58;9.70;;;5.97;;
72205;SDS011;60111;48.286;7.812;2022-07-22T13:26:30;7.45;;;6.03;;
72205;SDS011;60111;48.286;7.812;2022-07-22T13:29:03;7.47;;;6.00;;
72205;SDS011;60111;48.286;7.812;2022-07-22T13:31:36;8.98;;;6.60;;
72205;SDS011;60111;48.286;7.812;2022-07-22T13:34:08;10.97;;;6.23;;
72205;SDS011;60111;48.286;7.812;2022-07-22T13:36:41;8.30;;;6.85;;
72205;SDS011;60111;48.286;7.812;2022-07-22T13:39:14;7.17;;;5.65;;
72205;SDS011;60111;48.286;7.812;2022-07-22T13:41:47;8.57;;;6.63;;
72205;SDS011;60111;48.286;7.812;2022-07-22T13:44:19;8.87;;;6.30;;
72205;SDS011;60111;48.286;7.812;2022-07-22T13:46:52;9.50;;;5.92;;
72205;SDS011;60111;48.286;7.812;2022-07-22T13:51:57;11.18;;;5.80;;
72205;SDS011;60111;48.286;7.812;2022-07-22T13:54:30;7.97;;;6.08;;
72205;SDS011;60111;48.286;7.812;2022-07-22T13:57:04;7.03;;;6.17;;
72205;SDS011;60111;48.286;7.812;2022-07-22T13:59:37;7.67;;;5.97;;
72205;SDS011;60111;48.286;7.812;2022-07-22T14:02:11;9.73;;;6.15;;
72205;SDS011;60111;48.286;7.812;2022-07-22T14:04:43;6.97;;;5.90;;
72205;SDS011;60111;48.286;7.812;2022-07-22T14:07:16;7.08;;;6.00;;
72205;SDS011;60111;48.286;7.812;2022-07-22T14:09:48;8.35;;;5.87;;
72205;SDS011;60111;48.286;7.812;2022-07-22T14:12:21;8.48;;;6.37;;
72205;SDS011;60111;48.286;7.812;2022-07-22T14:14:54;8.48;;;6.53;;
72205;SDS011;60111;48.286;7.812;2022-07-22T14:17:26;8.05;;;6.30;;
72205;SDS011;60111;48.286;7.812;2022-07-22T14:19:59;9.33;;;6.23;;
72205;SDS011;60111;48.286;7.812;2022-07-22T14:22:34;7.44;;;6.08;;
72205;SDS011;60111;48.286;7.812;2022-07-22T14:25:07;8.30;;;5.62;;
72205;SDS011;60111;48.286;7.812;2022-07-22T14:27:40;14.67;;;6.73;;
72205;SDS011;60111;48.286;7.812;2022-07-22T14:30:13;6.60;;;5.80;;
72205;SDS011;60111;48.286;7.812;2022-07-22T14:32:45;7.13;;;6.43;;
72205;SDS011;60111;48.286;7.812;2022-07-22T14:35:18;9.68;;;6.10;;
72205;SDS011;60111;48.286;7.812;2022-07-22T14:37:51;12.60;;;6.20;;
72205;SDS011;60111;48.286;7.812;2022-07-22T14:40:23;8.30;;;5.63;;
72205;SDS011;60111;48.286;7.812;2022-07-22T14:42:56;8.85;;;5.47;;
72205;SDS011;60111;48.286;7.812;2022-07-22T14:45:29;8.18;;;6.37;;
72205;SDS011;60111;48.286;7.812;2022-07-22T14:48:01;7.85;;;5.87;;
72205;SDS011;60111;48.286;7.812;2022-07-22T14:50:34;7.55;;;5.62;;
72205;SDS011;60111;48.286;7.812;2022-07-22T14:53:07;6.50;;;5.73;;
72205;SDS011;60111;48.286;7.812;2022-07-22T14:55:40;8.93;;;5.40;;
72205;SDS011;60111;48.286;7.812;2022-07-22T14:58:13;9.30;;;6.07;;
72205;SDS011;60111;48.286;7.812;2022-07-22T15:00:45;8.35;;;6.00;;
72205;SDS011;60111;48.286;7.812;2022-07-22T15:03:18;7.23;;;5.80;;
72205;SDS011;60111;48.286;7.812;2022-07-22T15:05:51;8.63;;;6.22;;
72205;SDS011;60111;48.286;7.812;2022-07-22T15:08:24;10.00;;;5.83;;
72205;SDS011;60111;48.286;7.812;2022-07-22T15:10:56;9.75;;;6.10;;
72205;SDS011;60111;48.286;7.812;2022-07-22T15:13:30;9.23;;;6.05;;
72205;SDS011;60111;48.286;7.812;2022-07-22T15:16:04;6.78;;;5.55;;
72205;SDS011;60111;48.286;7.812;2022-07-22T15:18:37;7.70;;;5.58;;
72205;SDS011;60111;48.286;7.812;2022-07-22T15:21:10;7.63;;;5.50;;
72205;SDS011;60111;48.286;7.812;2022-07-22T15:23:43;7.37;;;4.85;;
72205;SDS011;60111;48.286;7.812;2022-07-22T15:26:15;8.40;;;5.83;;